sensor_id;sensor_type;location;lat;lon;timestamp;P1;durP1;ratioP1;P2;durP2;ratioP2
59016;SDS011;44800;55.600;38.134;2023-03-08T00:01:09;11.05;;;6.45;;
59016;SDS011;44800;55.600;38.134;2023-03-08T00:03:39;12.57;;;6.32;;
59016;SDS011;44800;55.600;38.134;2023-03-08T00:06:09;8.93;;;5.80;;
59016;SDS011;44800;55.600;38.134;2023-03-08T00:08:40;11.20;;;6.15;;
59016;SDS011;44800;55.600;38.134;2023-03-08T00:11:09;8.05;;;5.63;;
59016;SDS011;44800;55.600;38.134;2023-03-08T00:13:39;11.20;;;5.80;;
59016;SDS011;44800;55.600;38.134;2023-03-08T00:16:09;11.50;;;6.53;;
59016;SDS011;44800;55.600;38.134;2023-03-08T00:18:39;6.88;;;4.75;;
59016;SDS011;44800;55.600;38.134;2023-03-08T00:21:08;9.35;;;5.65;;
59016;SDS011;44800;55.600;38.134;2023-03-08T00:23:39;8.63;;;5.00;;
59016;SDS011;44800;55.600;38.134;2023-03-08T00:26:09;9.25;;;5.90;;
59016;SDS011;44800;55.600;38.134;2023-03-08T00:28:37;7.47;;;5.38;;
59016;SDS011;44800;55.600;38.134;2023-03-08T00:31:07;9.20;;;5.63;;
59016;SDS011;44800;55.600;38.134;2023-03-08T00:33:36;8.50;;;5.63;;
59016;SDS011;44800;55.600;38.134;2023-03-08T00:36:05;10.02;;;5.28;;
59016;SDS011;44800;55.600;38.134;2023-03-08T00:38:34;9.70;;;5.68;;
59016;SDS011;44800;55.600;38.134;2023-03-08T00:41:05;8.98;;;5.82;;
59016;SDS011;44800;55.600;38.134;2023-03-08T00:43:33;9.80;;;5.55;;
59016;SDS011;44800;55.600;38.134;2023-03-08T00:46:02;8.30;;;5.03;;
59016;SDS011;44800;55.600;38.134;2023-03-08T00:48:31;11.98;;;6.65;;
59016;SDS011;44800;55.600;38.134;2023-03-08T00:51:00;8.40;;;4.80;;
59016;SDS011;44800;55.600;38.134;2023-03-08T00:53:28;10.80;;;5.80;;
59016;SDS011;44800;55.600;38.134;2023-03-08T00:55:57;10.57;;;6.20;;
59016;SDS011;44800;55.600;38.134;2023-03-08T00:58:28;9.27;;;5.72;;
59016;SDS011;44800;55.600;38.134;2023-03-08T01:00:56;10.48;;;5.20;;
59016;SDS011;44800;55.600;38.134;2023-03-08T01:03:25;13.95;;;6.28;;
59016;SDS011;44800;55.600;38.134;2023-03-08T01:05:54;11.98;;;6.07;;
59016;SDS011;44800;55.600;38.134;2023-03-08T01:08:24;11.63;;;5.93;;
59016;SDS011;44800;55.600;38.134;2023-03-08T01:10:53;9.77;;;5.90;;
59016;SDS011;44800;55.600;38.134;2023-03-08T01:13:23;9.10;;;4.70;;
59016;SDS011;44800;55.600;38.134;2023-03-08T01:15:54;10.05;;;5.30;;
59016;SDS011;44800;55.600;38.134;2023-03-08T01:18:22;9.90;;;5.13;;
59016;SDS011;44800;55.600;38.134;2023-03-08T01:20:55;10.60;;;5.80;;
59016;SDS011;44800;55.600;38.134;2023-03-08T01:23:24;8.50;;;4.65;;
59016;SDS011;44800;55.600;38.134;2023-03-08T01:25:59;8.02;;;5.15;;
59016;SDS011;44800;55.600;38.134;2023-03-08T01:28:28;11.38;;;6.18;;
59016;SDS011;44800;55.600;38.134;2023-03-08T01:31:01;10.32;;;5.55;;
59016;SDS011;44800;55.600;38.134;2023-03-08T01:33:30;9.48;;;5.38;;
59016;SDS011;44800;55.600;38.134;2023-03-08T01:35:58;10.05;;;5.60;;
59016;SDS011;44800;55.600;38.134;2023-03-08T01:38:30;9.32;;;5.20;;
59016;SDS011;44800;55.600;38.134;2023-03-08T01:40:59;7.60;;;5.32;;
59016;SDS011;44800;55.600;38.134;2023-03-08T01:43:29;7.88;;;5.10;;
59016;SDS011;44800;55.600;38.134;2023-03-08T01:46:04;9.02;;;5.80;;
59016;SDS011;44800;55.600;38.134;2023-03-08T01:48:35;10.23;;;5.70;;
59016;SDS011;44800;55.600;38.134;2023-03-08T01:51:05;6.75;;;4.60;;
59016;SDS011;44800;55.600;38.134;2023-03-08T01:53:36;6.43;;;4.30;;
59016;SDS011;44800;55.600;38.134;2023-03-08T01:56:06;11.07;;;5.57;;
59016;SDS011;44800;55.600;38.134;2023-03-08T01:58:37;8.88;;;5.60;;
59016;SDS011;44800;55.600;38.134;2023-03-08T02:01:07;10.35;;;5.50;;
59016;SDS011;44800;55.600;38.134;2023-03-08T02:03:36;8.32;;;5.53;;
59016;SDS011;44800;55.600;38.134;2023-03-08T02:06:04;10.18;;;5.50;;
59016;SDS011;44800;55.600;38.134;2023-03-08T02:08:33;11.02;;;5.63;;
59016;SDS011;44800;55.600;38.134;2023-03-08T02:11:02;9.80;;;6.10;;
59016;SDS011;44800;55.600;38.134;2023-03-08T02:13:30;10.88;;;6.28;;
59016;SDS011;44800;55.600;38.134;2023-03-08T02:15:59;8.48;;;5.15;;
59016;SDS011;44800;55.600;38.134;2023-03-08T02:18:31;9.07;;;5.50;;
59016;SDS011;44800;55.600;38.134;2023-03-08T02:20:59;9.18;;;6.10;;
59016;SDS011;44800;55.600;38.134;2023-03-08T02:23:30;9.98;;;5.32;;
59016;SDS011;44800;55.600;38.134;2023-03-08T02:25:59;11.07;;;5.68;;
59016;SDS011;44800;55.600;38.134;2023-03-08T02:28:30;11.70;;;6.50;;
59016;SDS011;44800;55.600;38.134;2023-03-08T02:30:59;12.13;;;5.93;;
59016;SDS011;44800;55.600;38.134;2023-03-08T02:33:28;9.93;;;6.00;;
59016;SDS011;44800;55.600;38.134;2023-03-08T02:35:57;11.45;;;7.20;;
59016;SDS011;44800;55.600;38.134;2023-03-08T02:38:28;10.82;;;6.65;;
59016;SDS011;44800;55.600;38.134;2023-03-08T02:40:58;11.52;;;6.30;;
59016;SDS011;44800;55.600;38.134;2023-03-08T02:43:26;20.23;;;9.45;;
59016;SDS011;44800;55.600;38.134;2023-03-08T02:45:55;14.40;;;6.88;;
59016;SDS011;44800;55.600;38.134;2023-03-08T02:48:23;15.02;;;7.25;;
59016;SDS011;44800;55.600;38.134;2023-03-08T02:50:51;14.07;;;7.38;;
59016;SDS011;44800;55.600;38.134;2023-03-08T02:53:19;10.00;;;6.53;;
59016;SDS011;44800;55.600;38.134;2023-03-08T02:55:50;15.32;;;8.23;;
59016;SDS011;44800;55.600;38.134;2023-03-08T02:58:19;15.50;;;9.98;;
59016;SDS011;44800;55.600;38.134;2023-03-08T03:00:47;16.73;;;8.60;;
59016;SDS011;44800;55.600;38.134;2023-03-08T03:03:16;13.73;;;6.53;;
59016;SDS011;44800;55.600;38.134;2023-03-08T03:05:44;15.27;;;8.70;;
59016;SDS011;44800;55.600;38.134;2023-03-08T03:08:13;15.20;;;8.48;;
59016;SDS011;44800;55.600;38.134;2023-03-08T03:10:41;14.45;;;8.40;;
59016;SDS011;44800;55.600;38.134;2023-03-08T03:13:11;11.40;;;6.63;;
59016;SDS011;44800;55.600;38.134;2023-03-08T03:15:39;14.70;;;7.25;;
59016;SDS011;44800;55.600;38.134;2023-03-08T03:18:07;13.43;;;7.25;;
59016;SDS011;44800;55.600;38.134;2023-03-08T03:20:36;12.27;;;7.40;;
59016;SDS011;44800;55.600;38.134;2023-03-08T03:23:04;16.10;;;8.07;;
59016;SDS011;44800;55.600;38.134;2023-03-08T03:25:35;13.65;;;7.82;;
59016;SDS011;44800;55.600;38.134;2023-03-08T03:28:04;17.38;;;8.75;;
59016;SDS011;44800;55.600;38.134;2023-03-08T03:30:35;18.33;;;9.95;;
59016;SDS011;44800;55.600;38.134;2023-03-08T03:33:03;14.85;;;7.28;;
59016;SDS011;44800;55.600;38.134;2023-03-08T03:35:31;11.80;;;7.60;;
59016;SDS011;44800;55.600;38.134;2023-03-08T03:38:00;12.85;;;7.97;;
59016;SDS011;44800;55.600;38.134;2023-03-08T03:40:28;15.15;;;8.50;;
59016;SDS011;44800;55.600;38.134;2023-03-08T03:42:56;16.27;;;9.30;;
59016;SDS011;44800;55.600;38.134;2023-03-08T03:45:25;12.35;;;6.40;;
59016;SDS011;44800;55.600;38.134;2023-03-08T03:47:54;12.18;;;8.43;;
59016;SDS011;44800;55.600;38.134;2023-03-08T03:50:23;14.05;;;8.60;;
59016;SDS011;44800;55.600;38.134;2023-03-08T03:52:51;15.38;;;8.13;;
59016;SDS011;44800;55.600;38.134;2023-03-08T03:55:19;10.65;;;5.20;;
59016;SDS011;44800;55.600;38.134;2023-03-08T03:57:48;14.73;;;8.15;;
59016;SDS011;44800;55.600;38.134;2023-03-08T04:00:17;15.68;;;7.03;;
59016;SDS011;44800;55.600;38.134;2023-03-08T04:02:46;14.20;;;8.48;;
59016;SDS011;44800;55.600;38.134;2023-03-08T04:05:16;13.43;;;8.10;;
59016;SDS011;44800;55.600;38.134;2023-03-08T04:07:44;13.27;;;8.52;;
59016;SDS011;44800;55.600;38.134;2023-03-08T04:10:12;11.68;;;5.82;;
59016;SDS011;44800;55.600;38.134;2023-03-08T04:12:41;12.45;;;6.07;;
59016;SDS011;44800;55.600;38.134;2023-03-08T04:15:09;22.30;;;11.93;;
59016;SDS011;44800;55.600;38.134;2023-03-08T04:17:38;18.50;;;7.82;;
59016;SDS011;44800;55.600;38.134;2023-03-08T04:20:07;17.17;;;9.25;;
59016;SDS011;44800;55.600;38.134;2023-03-08T04:22:37;6.10;;;3.53;;
59016;SDS011;44800;55.600;38.134;2023-03-08T04:25:06;8.68;;;6.15;;
59016;SDS011;44800;55.600;38.134;2023-03-08T04:27:34;12.73;;;6.90;;
59016;SDS011;44800;55.600;38.134;2023-03-08T04:30:03;14.43;;;5.97;;
59016;SDS011;44800;55.600;38.134;2023-03-08T04:32:32;14.25;;;7.70;;
59016;SDS011;44800;55.600;38.134;2023-03-08T04:35:02;10.98;;;6.43;;
59016;SDS011;44800;55.600;38.134;2023-03-08T04:37:30;16.55;;;8.02;;
59016;SDS011;44800;55.600;38.134;2023-03-08T04:40:00;14.07;;;7.40;;
59016;SDS011;44800;55.600;38.134;2023-03-08T04:42:31;16.13;;;8.50;;
59016;SDS011;44800;55.600;38.134;2023-03-08T04:44:59;15.32;;;8.90;;
59016;SDS011;44800;55.600;38.134;2023-03-08T04:47:29;14.18;;;7.75;;
59016;SDS011;44800;55.600;38.134;2023-03-08T04:49:57;15.32;;;8.77;;
59016;SDS011;44800;55.600;38.134;2023-03-08T04:52:26;18.00;;;8.75;;
59016;SDS011;44800;55.600;38.134;2023-03-08T04:54:54;16.38;;;7.97;;
59016;SDS011;44800;55.600;38.134;2023-03-08T04:57:24;10.88;;;5.50;;
59016;SDS011;44800;55.600;38.134;2023-03-08T04:59:52;15.93;;;7.93;;
59016;SDS011;44800;55.600;38.134;2023-03-08T05:02:21;10.45;;;5.93;;
59016;SDS011;44800;55.600;38.134;2023-03-08T05:04:50;19.52;;;9.10;;
59016;SDS011;44800;55.600;38.134;2023-03-08T05:07:19;20.88;;;8.85;;
59016;SDS011;44800;55.600;38.134;2023-03-08T05:09:47;17.02;;;9.48;;
59016;SDS011;44800;55.600;38.134;2023-03-08T05:12:15;16.05;;;9.57;;
59016;SDS011;44800;55.600;38.134;2023-03-08T05:14:45;13.50;;;7.82;;
59016;SDS011;44800;55.600;38.134;2023-03-08T05:17:13;17.45;;;7.40;;
59016;SDS011;44800;55.600;38.134;2023-03-08T05:19:42;18.65;;;8.32;;
59016;SDS011;44800;55.600;38.134;2023-03-08T05:22:10;14.15;;;6.72;;
59016;SDS011;44800;55.600;38.134;2023-03-08T05:24:39;10.20;;;5.75;;
59016;SDS011;44800;55.600;38.134;2023-03-08T05:27:07;11.18;;;6.28;;
59016;SDS011;44800;55.600;38.134;2023-03-08T05:29:36;15.77;;;8.23;;
59016;SDS011;44800;55.600;38.134;2023-03-08T05:32:09;9.27;;;5.55;;
59016;SDS011;44800;55.600;38.134;2023-03-08T05:34:37;12.82;;;7.82;;
59016;SDS011;44800;55.600;38.134;2023-03-08T05:37:06;10.15;;;6.22;;
59016;SDS011;44800;55.600;38.134;2023-03-08T05:39:35;15.57;;;7.68;;
59016;SDS011;44800;55.600;38.134;2023-03-08T05:42:03;14.65;;;8.55;;
59016;SDS011;44800;55.600;38.134;2023-03-08T05:44:32;14.88;;;7.60;;
59016;SDS011;44800;55.600;38.134;2023-03-08T05:47:01;7.60;;;4.68;;
59016;SDS011;44800;55.600;38.134;2023-03-08T05:49:31;13.52;;;7.57;;
59016;SDS011;44800;55.600;38.134;2023-03-08T05:51:59;11.82;;;6.63;;
59016;SDS011;44800;55.600;38.134;2023-03-08T05:54:28;12.20;;;6.88;;
59016;SDS011;44800;55.600;38.134;2023-03-08T05:56:56;5.72;;;4.50;;
59016;SDS011;44800;55.600;38.134;2023-03-08T05:59:25;14.18;;;6.72;;
59016;SDS011;44800;55.600;38.134;2023-03-08T06:01:53;12.55;;;6.82;;
59016;SDS011;44800;55.600;38.134;2023-03-08T06:04:21;7.32;;;4.05;;
59016;SDS011;44800;55.600;38.134;2023-03-08T06:06:51;4.18;;;2.90;;
59016;SDS011;44800;55.600;38.134;2023-03-08T06:09:20;6.82;;;2.97;;
59016;SDS011;44800;55.600;38.134;2023-03-08T06:11:48;12.63;;;4.68;;
59016;SDS011;44800;55.600;38.134;2023-03-08T06:14:17;10.85;;;5.53;;
59016;SDS011;44800;55.600;38.134;2023-03-08T06:16:45;5.40;;;2.83;;
59016;SDS011;44800;55.600;38.134;2023-03-08T06:19:14;5.65;;;3.08;;
59016;SDS011;44800;55.600;38.134;2023-03-08T06:21:43;6.35;;;4.93;;
59016;SDS011;44800;55.600;38.134;2023-03-08T06:24:12;5.93;;;3.28;;
59016;SDS011;44800;55.600;38.134;2023-03-08T06:26:41;10.48;;;5.50;;
59016;SDS011;44800;55.600;38.134;2023-03-08T06:29:09;7.32;;;4.78;;
59016;SDS011;44800;55.600;38.134;2023-03-08T06:31:37;4.82;;;3.15;;
59016;SDS011;44800;55.600;38.134;2023-03-08T06:34:06;8.70;;;5.38;;
59016;SDS011;44800;55.600;38.134;2023-03-08T06:36:34;5.60;;;4.45;;
59016;SDS011;44800;55.600;38.134;2023-03-08T06:39:03;5.32;;;4.82;;
59016;SDS011;44800;55.600;38.134;2023-03-08T06:41:34;8.73;;;5.43;;
59016;SDS011;44800;55.600;38.134;2023-03-08T06:44:03;5.38;;;4.60;;
59016;SDS011;44800;55.600;38.134;2023-03-08T06:46:31;4.45;;;3.08;;
59016;SDS011;44800;55.600;38.134;2023-03-08T06:49:00;5.90;;;4.28;;
59016;SDS011;44800;55.600;38.134;2023-03-08T06:51:29;4.50;;;2.92;;
59016;SDS011;44800;55.600;38.134;2023-03-08T06:53:58;6.22;;;3.42;;
59016;SDS011;44800;55.600;38.134;2023-03-08T06:56:26;7.53;;;4.90;;
59016;SDS011;44800;55.600;38.134;2023-03-08T06:58:56;6.20;;;4.15;;
59016;SDS011;44800;55.600;38.134;2023-03-08T07:01:24;8.57;;;5.13;;
59016;SDS011;44800;55.600;38.134;2023-03-08T07:03:53;6.80;;;4.72;;
59016;SDS011;44800;55.600;38.134;2023-03-08T07:06:21;8.32;;;3.95;;
59016;SDS011;44800;55.600;38.134;2023-03-08T07:08:49;8.52;;;4.82;;
59016;SDS011;44800;55.600;38.134;2023-03-08T07:11:18;13.27;;;5.10;;
59016;SDS011;44800;55.600;38.134;2023-03-08T07:13:47;8.43;;;4.72;;
59016;SDS011;44800;55.600;38.134;2023-03-08T07:16:17;4.60;;;3.00;;
59016;SDS011;44800;55.600;38.134;2023-03-08T07:18:46;4.53;;;3.80;;
59016;SDS011;44800;55.600;38.134;2023-03-08T07:21:14;7.35;;;4.15;;
59016;SDS011;44800;55.600;38.134;2023-03-08T07:23:43;4.40;;;3.42;;
59016;SDS011;44800;55.600;38.134;2023-03-08T07:26:11;7.75;;;4.55;;
59016;SDS011;44800;55.600;38.134;2023-03-08T07:28:39;7.07;;;4.65;;
59016;SDS011;44800;55.600;38.134;2023-03-08T07:31:08;10.05;;;5.20;;
59016;SDS011;44800;55.600;38.134;2023-03-08T07:33:38;3.05;;;2.58;;
59016;SDS011;44800;55.600;38.134;2023-03-08T07:36:07;4.28;;;2.47;;
59016;SDS011;44800;55.600;38.134;2023-03-08T07:38:35;6.45;;;3.08;;
59016;SDS011;44800;55.600;38.134;2023-03-08T07:41:04;8.73;;;4.82;;
59016;SDS011;44800;55.600;38.134;2023-03-08T07:43:32;5.57;;;3.88;;
59016;SDS011;44800;55.600;38.134;2023-03-08T07:46:01;5.28;;;3.60;;
59016;SDS011;44800;55.600;38.134;2023-03-08T07:48:31;7.75;;;5.40;;
59016;SDS011;44800;55.600;38.134;2023-03-08T07:51:01;4.40;;;3.80;;
59016;SDS011;44800;55.600;38.134;2023-03-08T07:53:32;4.47;;;2.50;;
59016;SDS011;44800;55.600;38.134;2023-03-08T07:56:01;3.75;;;2.55;;
59016;SDS011;44800;55.600;38.134;2023-03-08T07:58:31;7.28;;;4.45;;
59016;SDS011;44800;55.600;38.134;2023-03-08T08:01:00;9.30;;;3.83;;
59016;SDS011;44800;55.600;38.134;2023-03-08T08:03:28;5.43;;;3.80;;
59016;SDS011;44800;55.600;38.134;2023-03-08T08:06:01;6.85;;;4.32;;
59016;SDS011;44800;55.600;38.134;2023-03-08T08:08:30;3.58;;;2.40;;
59016;SDS011;44800;55.600;38.134;2023-03-08T08:10:59;8.57;;;4.75;;
59016;SDS011;44800;55.600;38.134;2023-03-08T08:13:27;5.88;;;3.20;;
59016;SDS011;44800;55.600;38.134;2023-03-08T08:15:56;6.32;;;3.45;;
59016;SDS011;44800;55.600;38.134;2023-03-08T08:18:26;3.72;;;2.25;;
59016;SDS011;44800;55.600;38.134;2023-03-08T08:20:58;4.72;;;2.63;;
59016;SDS011;44800;55.600;38.134;2023-03-08T08:23:29;6.50;;;3.85;;
59016;SDS011;44800;55.600;38.134;2023-03-08T08:25:58;4.60;;;3.28;;
59016;SDS011;44800;55.600;38.134;2023-03-08T08:28:27;7.00;;;3.67;;
59016;SDS011;44800;55.600;38.134;2023-03-08T08:30:56;5.10;;;3.95;;
59016;SDS011;44800;55.600;38.134;2023-03-08T08:33:26;4.63;;;3.00;;
59016;SDS011;44800;55.600;38.134;2023-03-08T08:35:55;7.10;;;4.55;;
59016;SDS011;44800;55.600;38.134;2023-03-08T08:38:24;2.58;;;2.08;;
59016;SDS011;44800;55.600;38.134;2023-03-08T08:40:54;6.30;;;3.50;;
59016;SDS011;44800;55.600;38.134;2023-03-08T08:43:26;7.18;;;4.38;;
59016;SDS011;44800;55.600;38.134;2023-03-08T08:45:56;5.82;;;3.78;;
59016;SDS011;44800;55.600;38.134;2023-03-08T08:48:25;5.82;;;3.47;;
59016;SDS011;44800;55.600;38.134;2023-03-08T08:50:56;8.55;;;4.68;;
59016;SDS011;44800;55.600;38.134;2023-03-08T08:53:25;5.65;;;4.53;;
59016;SDS011;44800;55.600;38.134;2023-03-08T08:55:55;6.50;;;3.95;;
59016;SDS011;44800;55.600;38.134;2023-03-08T08:58:23;3.92;;;2.75;;
59016;SDS011;44800;55.600;38.134;2023-03-08T09:00:52;7.05;;;4.00;;
59016;SDS011;44800;55.600;38.134;2023-03-08T09:03:21;4.45;;;3.05;;
59016;SDS011;44800;55.600;38.134;2023-03-08T09:05:49;8.50;;;4.45;;
59016;SDS011;44800;55.600;38.134;2023-03-08T09:08:17;3.70;;;2.70;;
59016;SDS011;44800;55.600;38.134;2023-03-08T09:10:46;5.50;;;3.80;;
59016;SDS011;44800;55.600;38.134;2023-03-08T09:13:16;7.45;;;2.88;;
59016;SDS011;44800;55.600;38.134;2023-03-08T09:15:44;6.95;;;3.95;;
59016;SDS011;44800;55.600;38.134;2023-03-08T09:18:12;5.93;;;3.17;;
59016;SDS011;44800;55.600;38.134;2023-03-08T09:20:41;4.82;;;3.03;;
59016;SDS011;44800;55.600;38.134;2023-03-08T09:23:10;3.97;;;2.33;;
59016;SDS011;44800;55.600;38.134;2023-03-08T09:25:38;6.53;;;3.88;;
59016;SDS011;44800;55.600;38.134;2023-03-08T09:28:07;5.22;;;2.80;;
59016;SDS011;44800;55.600;38.134;2023-03-08T09:30:37;2.90;;;2.17;;
59016;SDS011;44800;55.600;38.134;2023-03-08T09:33:05;4.90;;;3.13;;
59016;SDS011;44800;55.600;38.134;2023-03-08T09:35:35;2.67;;;2.25;;
59016;SDS011;44800;55.600;38.134;2023-03-08T09:38:04;6.72;;;3.72;;
59016;SDS011;44800;55.600;38.134;2023-03-08T09:40:33;4.43;;;2.75;;
59016;SDS011;44800;55.600;38.134;2023-03-08T09:43:04;2.92;;;2.28;;
59016;SDS011;44800;55.600;38.134;2023-03-08T09:45:33;3.83;;;2.95;;
59016;SDS011;44800;55.600;38.134;2023-03-08T09:48:06;5.30;;;3.85;;
59016;SDS011;44800;55.600;38.134;2023-03-08T09:50:40;5.43;;;3.33;;
59016;SDS011;44800;55.600;38.134;2023-03-08T09:53:18;4.22;;;2.60;;
59016;SDS011;44800;55.600;38.134;2023-03-08T09:55:50;4.80;;;2.40;;
59016;SDS011;44800;55.600;38.134;2023-03-08T09:58:24;4.88;;;3.08;;
59016;SDS011;44800;55.600;38.134;2023-03-08T10:01:00;3.83;;;2.63;;
59016;SDS011;44800;55.600;38.134;2023-03-08T10:03:39;5.15;;;3.90;;
59016;SDS011;44800;55.600;38.134;2023-03-08T10:06:18;3.00;;;2.08;;
59016;SDS011;44800;55.600;38.134;2023-03-08T10:08:51;3.20;;;2.90;;
59016;SDS011;44800;55.600;38.134;2023-03-08T10:11:23;7.75;;;3.15;;
59016;SDS011;44800;55.600;38.134;2023-03-08T10:13:58;4.03;;;2.42;;
59016;SDS011;44800;55.600;38.134;2023-03-08T10:16:31;3.67;;;2.92;;
59016;SDS011;44800;55.600;38.134;2023-03-08T10:19:04;4.40;;;2.83;;
59016;SDS011;44800;55.600;38.134;2023-03-08T10:21:35;2.95;;;2.50;;
59016;SDS011;44800;55.600;38.134;2023-03-08T10:24:11;3.65;;;3.28;;
59016;SDS011;44800;55.600;38.134;2023-03-08T10:26:42;4.57;;;3.17;;
59016;SDS011;44800;55.600;38.134;2023-03-08T10:29:11;4.28;;;3.20;;
59016;SDS011;44800;55.600;38.134;2023-03-08T10:31:41;4.03;;;2.08;;
59016;SDS011;44800;55.600;38.134;2023-03-08T10:34:14;4.90;;;3.00;;
59016;SDS011;44800;55.600;38.134;2023-03-08T10:36:48;5.55;;;2.83;;
59016;SDS011;44800;55.600;38.134;2023-03-08T10:39:18;4.65;;;2.80;;
59016;SDS011;44800;55.600;38.134;2023-03-08T10:41:47;3.45;;;3.13;;
59016;SDS011;44800;55.600;38.134;2023-03-08T10:44:28;4.15;;;3.15;;
59016;SDS011;44800;55.600;38.134;2023-03-08T10:47:00;3.63;;;2.65;;
59016;SDS011;44800;55.600;38.134;2023-03-08T10:49:31;5.30;;;2.47;;
59016;SDS011;44800;55.600;38.134;2023-03-08T10:51:59;4.22;;;3.17;;
59016;SDS011;44800;55.600;38.134;2023-03-08T10:54:29;5.70;;;3.00;;
59016;SDS011;44800;55.600;38.134;2023-03-08T10:56:58;4.95;;;2.50;;
59016;SDS011;44800;55.600;38.134;2023-03-08T10:59:28;4.35;;;2.40;;
59016;SDS011;44800;55.600;38.134;2023-03-08T11:02:00;5.53;;;4.15;;
59016;SDS011;44800;55.600;38.134;2023-03-08T11:04:30;4.40;;;3.42;;
59016;SDS011;44800;55.600;38.134;2023-03-08T11:07:08;4.60;;;3.85;;
59016;SDS011;44800;55.600;38.134;2023-03-08T11:09:38;4.78;;;3.60;;
59016;SDS011;44800;55.600;38.134;2023-03-08T11:12:08;4.35;;;3.33;;
59016;SDS011;44800;55.600;38.134;2023-03-08T11:14:49;5.25;;;3.92;;
59016;SDS011;44800;55.600;38.134;2023-03-08T11:17:18;4.90;;;3.67;;
59016;SDS011;44800;55.600;38.134;2023-03-08T11:19:52;5.18;;;3.58;;
59016;SDS011;44800;55.600;38.134;2023-03-08T11:22:29;4.75;;;3.53;;
59016;SDS011;44800;55.600;38.134;2023-03-08T11:25:10;5.15;;;3.75;;
59016;SDS011;44800;55.600;38.134;2023-03-08T11:27:47;6.80;;;3.22;;
59016;SDS011;44800;55.600;38.134;2023-03-08T11:30:24;6.18;;;3.97;;
59016;SDS011;44800;55.600;38.134;2023-03-08T11:33:07;7.50;;;4.68;;
59016;SDS011;44800;55.600;38.134;2023-03-08T11:35:50;6.10;;;4.13;;
59016;SDS011;44800;55.600;38.134;2023-03-08T11:38:21;6.10;;;4.53;;
59016;SDS011;44800;55.600;38.134;2023-03-08T11:40:54;8.23;;;4.85;;
59016;SDS011;44800;55.600;38.134;2023-03-08T11:43:31;5.63;;;3.60;;
59016;SDS011;44800;55.600;38.134;2023-03-08T11:46:10;4.65;;;3.85;;
59016;SDS011;44800;55.600;38.134;2023-03-08T11:48:48;8.55;;;4.97;;
59016;SDS011;44800;55.600;38.134;2023-03-08T11:51:42;7.13;;;4.68;;
59016;SDS011;44800;55.600;38.134;2023-03-08T11:54:14;8.35;;;5.88;;
59016;SDS011;44800;55.600;38.134;2023-03-08T11:56:48;8.95;;;4.45;;
59016;SDS011;44800;55.600;38.134;2023-03-08T11:59:28;10.45;;;6.65;;
59016;SDS011;44800;55.600;38.134;2023-03-08T12:01:59;6.07;;;3.47;;
59016;SDS011;44800;55.600;38.134;2023-03-08T12:04:31;6.57;;;4.13;;
59016;SDS011;44800;55.600;38.134;2023-03-08T12:07:06;7.75;;;4.80;;
59016;SDS011;44800;55.600;38.134;2023-03-08T12:09:39;7.70;;;4.60;;
59016;SDS011;44800;55.600;38.134;2023-03-08T12:12:13;6.10;;;3.50;;
59016;SDS011;44800;55.600;38.134;2023-03-08T12:14:46;4.47;;;2.85;;
59016;SDS011;44800;55.600;38.134;2023-03-08T12:17:19;7.65;;;4.43;;
59016;SDS011;44800;55.600;38.134;2023-03-08T12:19:50;5.43;;;3.38;;
59016;SDS011;44800;55.600;38.134;2023-03-08T12:22:27;8.50;;;5.32;;
59016;SDS011;44800;55.600;38.134;2023-03-08T12:25:04;5.32;;;3.28;;
59016;SDS011;44800;55.600;38.134;2023-03-08T12:27:40;6.40;;;4.70;;
59016;SDS011;44800;55.600;38.134;2023-03-08T12:30:14;6.55;;;4.75;;
59016;SDS011;44800;55.600;38.134;2023-03-08T12:32:47;2.92;;;2.22;;
59016;SDS011;44800;55.600;38.134;2023-03-08T12:35:25;6.53;;;4.30;;
59016;SDS011;44800;55.600;38.134;2023-03-08T12:37:57;10.52;;;5.68;;
59016;SDS011;44800;55.600;38.134;2023-03-08T12:40:37;7.05;;;3.85;;
59016;SDS011;44800;55.600;38.134;2023-03-08T12:43:08;6.50;;;3.55;;
59016;SDS011;44800;55.600;38.134;2023-03-08T12:45:38;6.43;;;4.57;;
59016;SDS011;44800;55.600;38.134;2023-03-08T12:48:12;6.75;;;4.75;;
59016;SDS011;44800;55.600;38.134;2023-03-08T12:50:53;8.65;;;4.30;;
59016;SDS011;44800;55.600;38.134;2023-03-08T12:53:30;3.80;;;3.30;;
59016;SDS011;44800;55.600;38.134;2023-03-08T12:56:03;4.07;;;3.45;;
59016;SDS011;44800;55.600;38.134;2023-03-08T12:58:35;6.20;;;3.58;;
59016;SDS011;44800;55.600;38.134;2023-03-08T13:01:21;8.20;;;4.63;;
59016;SDS011;44800;55.600;38.134;2023-03-08T13:03:53;4.93;;;4.43;;
59016;SDS011;44800;55.600;38.134;2023-03-08T13:09:24;8.13;;;3.92;;
59016;SDS011;44800;55.600;38.134;2023-03-08T13:11:57;8.95;;;4.82;;
59016;SDS011;44800;55.600;38.134;2023-03-08T13:14:36;8.38;;;4.85;;
59016;SDS011;44800;55.600;38.134;2023-03-08T13:20:02;6.35;;;3.25;;
59016;SDS011;44800;55.600;38.134;2023-03-08T13:22:39;5.25;;;4.72;;
59016;SDS011;44800;55.600;38.134;2023-03-08T13:25:17;8.07;;;4.78;;
59016;SDS011;44800;55.600;38.134;2023-03-08T13:27:54;9.02;;;5.35;;
59016;SDS011;44800;55.600;38.134;2023-03-08T13:30:29;5.53;;;4.63;;
59016;SDS011;44800;55.600;38.134;2023-03-08T13:33:04;9.73;;;6.55;;
59016;SDS011;44800;55.600;38.134;2023-03-08T13:35:33;7.40;;;5.75;;
59016;SDS011;44800;55.600;38.134;2023-03-08T13:38:03;10.52;;;6.57;;
59016;SDS011;44800;55.600;38.134;2023-03-08T13:40:32;8.18;;;5.65;;
59016;SDS011;44800;55.600;38.134;2023-03-08T13:43:01;12.30;;;5.97;;
59016;SDS011;44800;55.600;38.134;2023-03-08T13:45:34;7.40;;;5.53;;
59016;SDS011;44800;55.600;38.134;2023-03-08T13:48:06;6.60;;;3.13;;
59016;SDS011;44800;55.600;38.134;2023-03-08T13:50:36;7.85;;;5.40;;
59016;SDS011;44800;55.600;38.134;2023-03-08T13:53:09;6.00;;;5.28;;
59016;SDS011;44800;55.600;38.134;2023-03-08T13:55:44;5.57;;;4.70;;
59016;SDS011;44800;55.600;38.134;2023-03-08T13:58:20;6.15;;;4.47;;
59016;SDS011;44800;55.600;38.134;2023-03-08T14:00:59;6.47;;;4.22;;
59016;SDS011;44800;55.600;38.134;2023-03-08T14:03:30;6.57;;;5.88;;
59016;SDS011;44800;55.600;38.134;2023-03-08T14:05:59;11.05;;;7.60;;
59016;SDS011;44800;55.600;38.134;2023-03-08T14:08:28;7.55;;;6.22;;
59016;SDS011;44800;55.600;38.134;2023-03-08T14:10:58;8.30;;;4.50;;
59016;SDS011;44800;55.600;38.134;2023-03-08T14:13:29;10.40;;;6.78;;
59016;SDS011;44800;55.600;38.134;2023-03-08T14:15:59;9.15;;;5.55;;
59016;SDS011;44800;55.600;38.134;2023-03-08T14:18:30;6.90;;;4.50;;
59016;SDS011;44800;55.600;38.134;2023-03-08T14:21:02;7.32;;;4.22;;
59016;SDS011;44800;55.600;38.134;2023-03-08T14:23:39;4.53;;;3.78;;
59016;SDS011;44800;55.600;38.134;2023-03-08T14:26:24;9.10;;;5.07;;
59016;SDS011;44800;55.600;38.134;2023-03-08T14:29:01;7.90;;;5.18;;
59016;SDS011;44800;55.600;38.134;2023-03-08T14:31:38;9.45;;;6.15;;
59016;SDS011;44800;55.600;38.134;2023-03-08T14:34:16;6.80;;;4.72;;
59016;SDS011;44800;55.600;38.134;2023-03-08T14:36:47;9.48;;;4.68;;
59016;SDS011;44800;55.600;38.134;2023-03-08T14:39:20;11.45;;;4.60;;
59016;SDS011;44800;55.600;38.134;2023-03-08T14:41:54;8.52;;;6.30;;
59016;SDS011;44800;55.600;38.134;2023-03-08T14:44:24;7.00;;;5.05;;
59016;SDS011;44800;55.600;38.134;2023-03-08T14:46:54;9.32;;;5.10;;
59016;SDS011;44800;55.600;38.134;2023-03-08T14:49:26;11.07;;;5.97;;
59016;SDS011;44800;55.600;38.134;2023-03-08T14:51:55;6.68;;;4.85;;
59016;SDS011;44800;55.600;38.134;2023-03-08T14:54:30;10.30;;;5.00;;
59016;SDS011;44800;55.600;38.134;2023-03-08T14:57:02;4.50;;;2.95;;